Time;durP1;ratioP1;P1;durP2;ratioP2;P2;SDS_P1;SDS_P2;PMS_P1;PMS_P2;Temp;Humidity;BMP_temperature;BMP_pressure;BME280_temperature;BME280_humidity;BME280_pressure;Samples;Min_cycle;Max_cycle;Signal;HPM_P1;HPM_P2
2023/10/18 00:02:18;;;;;;;8.48;5.40;;;23.80;46.10;;;;;;6205568;28;82048;-60
2023/10/18 00:05:21;;;;;;;8.93;6.15;;;23.80;46.40;;;;;;6205759;28;81336;-64
2023/10/18 00:08:24;;;;;;;9.63;5.72;;;23.80;46.30;;;;;;6203713;28;81058;-64
2023/10/18 00:11:25;;;;;;;8.77;6.28;;;23.80;46.50;;;;;;6205201;28;82161;-66
2023/10/18 00:14:26;;;;;;;12.60;7.18;;;23.80;46.40;;;;;;6218397;27;82557;-65
2023/10/18 00:17:26;;;;;;;9.93;5.78;;;23.70;46.10;;;;;;6227327;28;80875;-63
2023/10/18 00:20:27;;;;;;;11.88;7.32;;;23.70;46.10;;;;;;6214989;28;80780;-65
2023/10/18 00:23:27;;;;;;;13.45;7.28;;;23.70;46.10;;;;;;6228236;27;82588;-64
2023/10/18 00:26:28;;;;;;;10.30;7.00;;;23.70;46.20;;;;;;6225582;27;80639;-64
2023/10/18 00:29:31;;;;;;;13.80;7.97;;;23.80;46.10;;;;;;6224808;28;82913;-63
2023/10/18 00:32:33;;;;;;;13.55;7.40;;;23.70;46.10;;;;;;6221510;28;82354;-63
2023/10/18 00:35:36;;;;;;;12.60;7.95;;;23.70;46.00;;;;;;6202882;28;82056;-64
2023/10/18 00:38:38;;;;;;;13.93;7.70;;;23.70;46.00;;;;;;6202992;28;83385;-64
2023/10/18 00:41:43;;;;;;;14.15;8.63;;;23.70;46.00;;;;;;6209645;28;81568;-61
2023/10/18 00:44:49;;;;;;;13.20;7.78;;;23.70;46.00;;;;;;6205101;28;80149;-61
2023/10/18 00:47:50;;;;;;;13.40;7.78;;;23.70;45.80;;;;;;6213652;28;83237;-61
2023/10/18 00:50:52;;;;;;;13.15;8.85;;;23.70;45.90;;;;;;6209153;28;80367;-60
2023/10/18 00:53:52;;;;;;;12.50;8.23;;;23.70;45.70;;;;;;6202100;28;81548;-61
2023/10/18 00:56:53;;;;;;;13.35;8.65;;;23.70;45.50;;;;;;6205543;28;83383;-60
2023/10/18 00:59:56;;;;;;;15.38;8.90;;;23.70;45.50;;;;;;6199899;28;81477;-68
2023/10/18 01:02:59;;;;;;;13.63;8.60;;;23.60;45.40;;;;;;6212481;28;81576;-66
2023/10/18 01:06:00;;;;;;;14.88;8.80;;;23.60;45.30;;;;;;6201327;28;80510;-66
2023/10/18 01:09:01;;;;;;;15.50;9.63;;;23.60;45.30;;;;;;6201442;28;81166;-64
2023/10/18 01:12:02;;;;;;;13.43;8.95;;;23.60;45.50;;;;;;6202503;28;83539;-65
2023/10/18 01:15:06;;;;;;;12.60;8.77;;;23.60;45.20;;;;;;6201943;28;81164;-65
2023/10/18 01:18:08;;;;;;;13.73;7.97;;;23.60;45.40;;;;;;6202275;28;83445;-66
2023/10/18 01:21:13;;;;;;;14.13;8.55;;;23.60;45.60;;;;;;6219996;28;80381;-65
2023/10/18 01:24:14;;;;;;;14.13;8.85;;;23.60;45.50;;;;;;6211431;28;81298;-66
2023/10/18 01:27:16;;;;;;;13.70;8.43;;;23.60;45.30;;;;;;6222262;28;81570;-66
2023/10/18 01:30:19;;;;;;;14.13;8.40;;;23.60;45.20;;;;;;6218871;28;80487;-65
2023/10/18 01:33:22;;;;;;;9.93;7.05;;;23.60;45.20;;;;;;6203924;28;81441;-66
2023/10/18 01:36:28;;;;;;;13.73;8.50;;;23.60;45.30;;;;;;6225082;28;81639;-66
2023/10/18 01:39:29;;;;;;;10.77;7.47;;;23.60;45.10;;;;;;6214550;28;83697;-64
2023/10/18 01:42:30;;;;;;;14.02;8.18;;;23.60;45.10;;;;;;6209189;28;80169;-64
2023/10/18 01:45:37;;;;;;;11.85;7.13;;;23.60;45.10;;;;;;6202844;28;82464;-65
2023/10/18 01:48:38;;;;;;;12.00;7.78;;;23.60;45.10;;;;;;6216609;28;80900;-64
2023/10/18 01:51:42;;;;;;;12.38;7.90;;;23.60;45.10;;;;;;6204397;28;81607;-65
2023/10/18 01:54:42;;;;;;;11.77;7.38;;;23.50;45.00;;;;;;6204963;28;80437;-65
2023/10/18 01:57:44;;;;;;;12.13;7.00;;;23.50;44.90;;;;;;6206506;28;80254;-67
2023/10/18 02:00:45;;;;;;;10.93;7.43;;;23.60;45.30;;;;;;6202690;28;81315;-66
2023/10/18 02:03:47;;;;;;;13.55;7.72;;;23.50;45.10;;;;;;6203851;28;80280;-66
2023/10/18 02:06:49;;;;;;;11.77;7.38;;;23.50;45.10;;;;;;6203029;28;80759;-66
2023/10/18 02:09:57;;;;;;;10.60;6.72;;;23.50;45.10;;;;;;6202767;28;81708;-65
2023/10/18 02:12:58;;;;;;;11.38;7.47;;;23.60;45.20;;;;;;6204075;28;82226;-66
2023/10/18 02:15:59;;;;;;;11.63;6.72;;;23.50;45.00;;;;;;6203954;28;82111;-68
2023/10/18 02:18:59;;;;;;;10.77;7.38;;;23.50;45.20;;;;;;6202294;28;81854;-67
2023/10/18 02:22:00;;;;;;;10.13;7.07;;;23.50;45.20;;;;;;6214654;27;81175;-69
2023/10/18 02:25:02;;;;;;;9.45;6.60;;;23.50;45.00;;;;;;6213593;27;80967;-68
2023/10/18 02:28:07;;;;;;;12.80;6.50;;;23.50;45.10;;;;;;6213201;27;81011;-67
2023/10/18 02:31:13;;;;;;;11.20;6.57;;;23.50;45.10;;;;;;6225791;28;80724;-67
2023/10/18 02:34:16;;;;;;;8.77;6.43;;;23.50;45.00;;;;;;6226043;27;80580;-65
2023/10/18 02:37:17;;;;;;;10.90;6.95;;;23.50;45.00;;;;;;6223265;28;81737;-65
2023/10/18 02:40:29;;;;;;;10.38;5.85;;;23.50;45.10;;;;;;6224271;28;87865;-66
2023/10/18 02:43:30;;;;;;;9.15;6.60;;;23.50;45.10;;;;;;6223654;28;83184;-64
2023/10/18 02:46:33;;;;;;;10.05;6.32;;;23.50;45.10;;;;;;6223684;28;81655;-65
2023/10/18 02:49:34;;;;;;;11.43;6.38;;;23.50;45.00;;;;;;6239271;27;80454;-60
2023/10/18 02:52:35;;;;;;;10.05;6.35;;;23.50;44.90;;;;;;6224687;28;81236;-61
2023/10/18 02:55:38;;;;;;;10.10;6.50;;;23.50;44.80;;;;;;6226102;27;81007;-62
2023/10/18 02:58:39;;;;;;;10.98;7.15;;;23.50;44.60;;;;;;6222952;28;80710;-59
2023/10/18 03:01:40;;;;;;;10.35;6.53;;;23.50;44.80;;;;;;6220378;28;83437;-60
2023/10/18 03:04:44;;;;;;;9.25;6.22;;;23.50;44.60;;;;;;6221504;28;80452;-60
2023/10/18 03:07:45;;;;;;;9.60;6.35;;;23.50;44.60;;;;;;6222025;28;80889;-61
2023/10/18 03:10:47;;;;;;;11.02;6.32;;;23.50;45.00;;;;;;6223680;28;81644;-60
2023/10/18 03:14:01;;;;;;;10.10;5.93;;;23.50;44.70;;;;;;6224751;27;80479;-59
2023/10/18 03:17:13;;;;;;;8.35;5.65;;;23.50;44.50;;;;;;6240291;27;80431;-59
2023/10/18 03:20:23;;;;;;;10.23;6.70;;;23.50;44.40;;;;;;6226612;28;81547;-61
2023/10/18 03:23:26;;;;;;;8.85;6.28;;;23.60;44.40;;;;;;6224295;28;82383;-61
2023/10/18 03:26:36;;;;;;;7.97;5.95;;;23.60;44.20;;;;;;6218950;28;81561;-61
2023/10/18 03:29:37;;;;;;;10.27;6.30;;;23.60;44.20;;;;;;6225546;27;80225;-60
2023/10/18 03:32:38;;;;;;;8.68;5.63;;;23.70;44.10;;;;;;6219156;28;81642;-61
2023/10/18 03:35:43;;;;;;;8.30;5.25;;;23.70;43.90;;;;;;6206689;28;80474;-61
2023/10/18 03:38:43;;;;;;;9.10;5.67;;;23.70;43.90;;;;;;6214159;28;80705;-61
2023/10/18 03:41:46;;;;;;;9.13;6.13;;;23.70;43.90;;;;;;6202117;28;81059;-60
2023/10/18 03:44:47;;;;;;;10.45;5.88;;;23.70;43.80;;;;;;6202853;28;83108;-64
2023/10/18 03:47:57;;;;;;;7.60;4.50;;;23.80;43.90;;;;;;6205250;28;81643;-67
2023/10/18 03:51:00;;;;;;;8.35;5.22;;;23.80;43.90;;;;;;6227331;28;83957;-65
2023/10/18 03:54:01;;;;;;;8.43;5.18;;;23.90;43.80;;;;;;6218000;28;81537;-68
2023/10/18 03:57:06;;;;;;;9.18;5.38;;;23.80;43.90;;;;;;6207430;28;83170;-65
2023/10/18 04:03:29;;;;;;;10.85;4.60;;;23.90;43.70;;;;;;6209028;28;80181;-67
2023/10/18 04:06:32;;;;;;;10.38;5.10;;;23.90;43.80;;;;;;6218343;28;85628;-72
2023/10/18 04:09:32;;;;;;;8.68;5.13;;;23.90;44.00;;;;;;6226171;27;84612;-71
2023/10/18 04:12:33;;;;;;;8.98;4.93;;;23.90;43.60;;;;;;6215763;28;80698;-68
2023/10/18 04:15:37;;;;;;;8.02;5.45;;;23.90;43.70;;;;;;6222476;28;80854;-66
2023/10/18 04:18:41;;;;;;;8.32;4.93;;;23.90;43.70;;;;;;6206904;27;80568;-70
2023/10/18 04:21:41;;;;;;;11.75;5.80;;;23.90;43.70;;;;;;6215167;28;80469;-60
2023/10/18 04:24:42;;;;;;;8.10;4.80;;;24.00;44.00;;;;;;6218327;28;80563;-61
2023/10/18 04:27:44;;;;;;;11.32;6.28;;;24.00;43.90;;;;;;6217645;28;81252;-61
2023/10/18 04:30:45;;;;;;;9.02;5.57;;;24.00;44.00;;;;;;6213538;28;80677;-60
2023/10/18 04:33:50;;;;;;;11.27;6.45;;;24.00;44.00;;;;;;6214587;28;80548;-57
2023/10/18 04:36:51;;;;;;;9.30;5.68;;;24.00;44.20;;;;;;6222959;28;80912;-57
2023/10/18 04:39:53;;;;;;;16.58;5.45;;;24.00;44.40;;;;;;6225658;28;80589;-62
2023/10/18 04:42:57;;;;;;;9.32;5.63;;;24.00;44.00;;;;;;6225882;28;80548;-62
2023/10/18 04:45:59;;;;;;;13.98;5.80;;;24.00;44.00;;;;;;6225374;28;81288;-61
2023/10/18 04:49:00;;;;;;;11.88;5.00;;;24.00;43.90;;;;;;6213820;28;82107;-62
2023/10/18 04:52:04;;;;;;;9.30;5.22;;;24.10;44.20;;;;;;6211931;27;81146;-61
2023/10/18 04:55:07;;;;;;;20.08;6.13;;;24.10;44.40;;;;;;6220503;28;81843;-62
2023/10/18 04:58:10;;;;;;;9.68;5.38;;;24.10;44.60;;;;;;6220927;27;80587;-60
2023/10/18 05:01:13;;;;;;;11.48;6.22;;;24.10;45.00;;;;;;6228973;28;80571;-61
2023/10/18 05:04:20;;;;;;;13.20;6.10;;;24.10;44.50;;;;;;6220026;28;80234;-60
2023/10/18 05:07:20;;;;;;;12.25;5.25;;;24.10;44.40;;;;;;6223470;28;80669;-61
2023/10/18 05:10:21;;;;;;;13.75;5.88;;;24.10;44.30;;;;;;6210844;28;80397;-62
2023/10/18 05:13:43;;;;;;;12.40;6.32;;;24.00;43.70;;;;;;6225126;28;80441;-63
2023/10/18 05:16:44;;;;;;;11.77;6.32;;;24.00;43.50;;;;;;6215176;28;80215;-62
2023/10/18 05:19:45;;;;;;;8.27;5.80;;;24.00;43.30;;;;;;6226200;28;80168;-62
2023/10/18 05:22:48;;;;;;;10.18;6.47;;;24.00;42.90;;;;;;6217946;28;82947;-62
2023/10/18 05:25:48;;;;;;;13.88;7.28;;;24.00;42.40;;;;;;6214069;28;80858;-62
2023/10/18 05:35:27;;;;;;;15.73;9.23;;;23.80;41.50;;;;;;6211266;28;80542;-72
2023/10/18 05:41:49;;;;;;;15.20;8.27;;;23.80;41.60;;;;;;6087929;28;82934;-60
2023/10/18 05:44:51;;;;;;;13.68;8.38;;;23.80;41.60;;;;;;6094285;28;82587;-61
2023/10/18 05:47:54;;;;;;;15.48;8.48;;;23.80;41.60;;;;;;6105158;28;82230;-59
2023/10/18 05:51:21;;;;;;;13.07;7.65;;;23.80;41.40;;;;;;6100180;28;82182;-60
2023/10/18 05:54:22;;;;;;;15.52;8.48;;;23.80;41.60;;;;;;6084689;28;80794;-59
2023/10/18 05:57:23;;;;;;;10.60;7.43;;;23.80;41.60;;;;;;6091007;28;81805;-59
2023/10/18 06:00:24;;;;;;;12.63;7.65;;;23.80;41.50;;;;;;6091506;28;81165;-59
2023/10/18 06:03:38;;;;;;;13.30;7.70;;;23.70;41.50;;;;;;6103283;28;82091;-61
2023/10/18 06:06:39;;;;;;;13.27;7.78;;;23.80;41.90;;;;;;6115111;27;85129;-61
2023/10/18 06:12:58;;;;;;;12.52;6.57;;;23.80;41.70;;;;;;6103754;27;81295;-60
2023/10/18 06:15:58;;;;;;;13.68;7.47;;;23.80;42.00;;;;;;6102596;27;81841;-61
2023/10/18 06:18:59;;;;;;;10.55;6.43;;;23.90;42.00;;;;;;6110021;28;81338;-60
2023/10/18 06:22:08;;;;;;;15.70;7.90;;;23.90;42.10;;;;;;6099396;27;83489;-60
2023/10/18 06:25:25;;;;;;;16.08;7.28;;;23.90;42.10;;;;;;6105906;28;82452;-62
2023/10/18 06:28:26;;;;;;;11.85;6.95;;;23.90;42.20;;;;;;6102515;27;80338;-61
2023/10/18 06:31:26;;;;;;;11.70;6.85;;;23.90;42.60;;;;;;6099290;28;82230;-61
2023/10/18 06:34:29;;;;;;;10.52;6.72;;;23.90;42.50;;;;;;6094410;28;81923;-59
2023/10/18 06:37:41;;;;;;;10.75;7.10;;;23.90;42.90;;;;;;6091415;28;81654;-58
2023/10/18 06:40:51;;;;;;;23.42;7.65;;;23.90;42.90;;;;;;6086199;27;82305;-58
2023/10/18 06:43:54;;;;;;;10.15;6.72;;;23.90;42.90;;;;;;6080555;28;82098;-59
2023/10/18 06:46:55;;;;;;;14.88;6.80;;;24.00;42.90;;;;;;6082037;28;87261;-60
2023/10/18 06:49:58;;;;;;;12.45;6.68;;;24.00;42.80;;;;;;6081703;28;82570;-61
2023/10/18 06:52:59;;;;;;;12.43;6.85;;;24.00;42.80;;;;;;6082093;28;81606;-62
2023/10/18 06:56:06;;;;;;;12.68;7.25;;;24.00;42.80;;;;;;6083837;28;82829;-63
2023/10/18 06:59:07;;;;;;;12.48;7.10;;;24.00;42.70;;;;;;6082095;28;81254;-63
2023/10/18 07:02:08;;;;;;;10.98;7.40;;;24.00;42.90;;;;;;6084712;28;82273;-62
2023/10/18 07:05:09;;;;;;;13.65;6.78;;;24.00;42.90;;;;;;6085009;28;83630;-63
2023/10/18 07:08:19;;;;;;;13.73;6.90;;;24.00;43.00;;;;;;6083926;28;87865;-61
2023/10/18 07:11:19;;;;;;;12.05;7.22;;;24.00;43.00;;;;;;6086281;28;83497;-60
2023/10/18 07:14:20;;;;;;;13.75;7.47;;;24.00;43.70;;;;;;6083790;28;82399;-59
2023/10/18 07:17:24;;;;;;;12.82;7.05;;;24.10;44.10;;;;;;6083808;28;82013;-60
2023/10/18 07:20:25;;;;;;;12.35;6.65;;;24.10;43.80;;;;;;6078518;28;82080;-60
2023/10/18 07:23:26;;;;;;;13.18;6.75;;;24.10;43.30;;;;;;6103434;27;81673;-59
2023/10/18 07:26:29;;;;;;;10.68;6.25;;;24.10;43.70;;;;;;6083643;28;82497;-60
2023/10/18 07:29:29;;;;;;;11.45;6.68;;;24.20;44.00;;;;;;6099627;27;82069;-59
2023/10/18 07:32:31;;;;;;;10.40;6.43;;;24.20;44.20;;;;;;6110062;28;82211;-51
2023/10/18 07:35:34;;;;;;;11.18;7.18;;;24.20;44.30;;;;;;6107917;27;83136;-52
2023/10/18 07:38:37;;;;;;;11.65;7.25;;;24.30;44.40;;;;;;6095905;28;88093;-52
2023/10/18 07:41:38;;;;;;;11.60;6.65;;;24.30;44.00;;;;;;6095137;28;82958;-58
2023/10/18 07:44:41;;;;;;;16.23;9.02;;;24.30;43.80;;;;;;6094517;28;83041;-64
2023/10/18 07:47:42;;;;;;;13.63;7.55;;;24.30;43.90;;;;;;6175266;28;82314;-63
2023/10/18 07:50:42;;;;;;;16.30;8.80;;;24.30;43.80;;;;;;6218824;27;80836;-67
2023/10/18 07:53:44;;;;;;;14.25;8.77;;;24.30;43.70;;;;;;6224084;27;81671;-62
2023/10/18 07:56:50;;;;;;;18.90;8.35;;;24.30;43.90;;;;;;6227403;28;81486;-62
2023/10/18 08:00:14;;;;;;;15.80;8.95;;;24.30;44.10;;;;;;6229758;27;80351;-62
2023/10/18 08:03:12;;;;;;;18.00;9.02;;;24.30;43.60;;;;;;6240795;27;80158;-60
2023/10/18 08:06:15;;;;;;;21.15;9.63;;;24.40;43.50;;;;;;6228646;28;80917;-61
2023/10/18 08:09:28;;;;;;;17.50;10.32;;;24.40;43.40;;;;;;6231252;28;80966;-63
2023/10/18 08:12:33;;;;;;;14.45;8.82;;;24.30;42.90;;;;;;6214594;28;86868;-63
2023/10/18 08:15:36;;;;;;;15.10;9.98;;;24.30;43.70;;;;;;6226715;27;82299;-65
2023/10/18 08:18:43;;;;;;;67.68;27.60;;;24.40;43.50;;;;;;6217277;28;84776;-65
2023/10/18 08:21:57;;;;;;;105.82;49.97;;;24.40;43.50;;;;;;6216643;27;85160;-66
2023/10/18 08:24:58;;;;;;;96.35;46.75;;;24.40;43.40;;;;;;6217208;28;83057;-63
2023/10/18 08:28:02;;;;;;;85.32;39.05;;;24.40;43.80;;;;;;6231145;27;84824;-63
2023/10/18 08:34:06;;;;;;;47.25;24.70;;;24.50;43.30;;;;;;6226118;27;83084;-63
2023/10/18 08:37:10;;;;;;;46.70;23.45;;;24.50;43.70;;;;;;6221443;27;84566;-65
2023/10/18 08:40:37;;;;;;;15.65;8.38;;;24.50;43.60;;;;;;6215552;28;83532;-60
2023/10/18 08:43:31;;;;;;;31.67;11.95;;;24.40;38.80;;;;;;6220702;28;83001;-60
2023/10/18 08:46:32;;;;;;;21.10;11.23;;;24.30;42.10;;;;;;6219246;28;82807;-63
2023/10/18 08:49:33;;;;;;;27.27;11.70;;;24.40;42.10;;;;;;6225726;27;82971;-61
2023/10/18 08:52:35;;;;;;;21.35;11.23;;;24.40;43.40;;;;;;6218402;27;83466;-60
2023/10/18 08:55:44;;;;;;;19.88;10.30;;;24.40;42.80;;;;;;6215734;27;83289;-62
2023/10/18 08:58:47;;;;;;;19.33;10.50;;;24.50;43.50;;;;;;6224630;27;82784;-60
2023/10/18 09:02:09;;;;;;;19.98;9.52;;;24.50;43.70;;;;;;6226126;27;82994;-61
2023/10/18 09:05:10;;;;;;;17.25;8.82;;;24.50;41.50;;;;;;6222644;28;83085;-62
2023/10/18 09:08:19;;;;;;;14.10;8.38;;;24.50;42.90;;;;;;6220697;28;83206;-62
2023/10/18 09:11:22;;;;;;;16.40;7.07;;;24.60;43.20;;;;;;6225632;28;80515;-61
2023/10/18 09:14:22;;;;;;;15.32;9.05;;;24.60;43.50;;;;;;6224487;27;80457;-60
2023/10/18 09:17:23;;;;;;;13.30;7.82;;;24.60;43.30;;;;;;6225319;27;82412;-61
2023/10/18 09:20:27;;;;;;;11.93;7.07;;;24.60;43.30;;;;;;6222822;27;81777;-61
2023/10/18 09:23:30;;;;;;;13.95;7.43;;;24.60;43.70;;;;;;6225735;27;81924;-61
2023/10/18 09:26:35;;;;;;;11.65;6.68;;;24.70;43.50;;;;;;6215696;28;81426;-61
2023/10/18 09:29:36;;;;;;;8.70;5.72;;;24.70;44.30;;;;;;6245919;27;80426;-62
2023/10/18 09:32:37;;;;;;;12.98;6.97;;;24.80;43.80;;;;;;6229597;27;80703;-61
2023/10/18 09:35:39;;;;;;;11.52;5.72;;;24.80;44.00;;;;;;6228360;28;80645;-60
2023/10/18 09:38:39;;;;;;;10.48;5.22;;;24.80;44.10;;;;;;6227458;27;80355;-60
2023/10/18 09:41:40;;;;;;;10.32;5.35;;;24.90;43.10;;;;;;6231246;28;80422;-61
2023/10/18 09:44:44;;;;;;;11.32;5.18;;;24.90;42.80;;;;;;6229476;28;80617;-61
2023/10/18 09:47:44;;;;;;;7.57;4.35;;;24.90;44.00;;;;;;6217329;28;80310;-62
2023/10/18 09:50:45;;;;;;;15.05;4.75;;;24.90;42.90;;;;;;6228195;28;80875;-61
2023/10/18 09:53:46;;;;;;;9.55;4.63;;;24.90;43.70;;;;;;6217202;28;81553;-61
2023/10/18 09:56:48;;;;;;;9.88;4.90;;;24.80;43.60;;;;;;6220650;28;80348;-61
2023/10/18 09:59:48;;;;;;;12.05;5.10;;;24.90;44.20;;;;;;6205839;28;80301;-61
2023/10/18 10:02:53;;;;;;;7.85;4.22;;;24.90;43.70;;;;;;6210944;28;80440;-61
2023/10/18 10:05:57;;;;;;;8.77;4.82;;;24.90;44.20;;;;;;6232041;27;80574;-60
2023/10/18 10:09:12;;;;;;;8.23;4.30;;;25.00;44.20;;;;;;6226977;27;80708;-61
2023/10/18 10:12:12;;;;;;;6.55;3.90;;;25.00;43.80;;;;;;6226263;28;80873;-62
2023/10/18 10:15:17;;;;;;;6.80;4.13;;;25.00;43.80;;;;;;6227020;28;80240;-63
2023/10/18 10:18:18;;;;;;;8.90;4.00;;;25.00;43.80;;;;;;6240565;27;80447;-62
2023/10/18 10:21:21;;;;;;;9.82;4.13;;;25.10;44.20;;;;;;6222326;28;80312;-62
2023/10/18 10:24:42;;;;;;;6.93;4.15;;;25.10;44.10;;;;;;6240106;28;81396;-63
2023/10/18 10:27:49;;;;;;;8.10;4.43;;;25.10;44.40;;;;;;6225716;28;85250;-62
2023/10/18 10:30:50;;;;;;;6.90;3.53;;;25.20;44.90;;;;;;6223437;27;81911;-61
2023/10/18 10:33:50;;;;;;;5.10;3.22;;;25.20;44.00;;;;;;6224473;27;80481;-61
2023/10/18 10:36:51;;;;;;;7.85;3.42;;;25.30;44.80;;;;;;6214554;27;81015;-61
2023/10/18 10:39:51;;;;;;;6.28;3.63;;;25.30;44.50;;;;;;6210934;28;86518;-61
2023/10/18 10:42:52;;;;;;;7.53;3.70;;;25.30;43.90;;;;;;6203853;27;81802;-61
2023/10/18 10:48:56;;;;;;;5.70;3.17;;;25.30;44.70;;;;;;6206543;28;82891;-61
2023/10/18 10:51:56;;;;;;;5.10;3.15;;;25.40;46.60;;;;;;6216860;28;81374;-57
2023/10/18 10:54:57;;;;;;;5.47;3.20;;;25.40;47.80;;;;;;6197840;28;84614;-59
2023/10/18 10:57:57;;;;;;;9.98;3.17;;;25.40;48.00;;;;;;6214162;28;80780;-60
2023/10/18 11:00:59;;;;;;;5.20;3.40;;;25.40;48.70;;;;;;6219931;28;80572;-60
2023/10/18 11:04:10;;;;;;;6.00;2.78;;;25.40;47.80;;;;;;6216067;28;80650;-60
2023/10/18 11:07:13;;;;;;;6.07;2.88;;;25.40;48.00;;;;;;6218559;28;85653;-63
2023/10/18 11:10:17;;;;;;;3.40;2.30;;;25.40;48.30;;;;;;6220217;28;80561;-64
2023/10/18 11:13:22;;;;;;;6.00;3.28;;;25.40;48.20;;;;;;6215207;28;80585;-62
2023/10/18 11:16:24;;;;;;;7.95;2.80;;;25.40;47.90;;;;;;6217201;28;80417;-67
2023/10/18 11:19:28;;;;;;;4.18;2.83;;;25.40;48.30;;;;;;6221731;28;80314;-67
2023/10/18 11:22:31;;;;;;;6.95;2.75;;;25.40;48.80;;;;;;6223011;28;84453;-64
2023/10/18 11:25:33;;;;;;;4.63;3.00;;;25.40;49.10;;;;;;6219026;28;80285;-64
2023/10/18 11:28:37;;;;;;;3.80;2.78;;;25.40;49.00;;;;;;6225076;27;81253;-66
2023/10/18 11:31:38;;;;;;;4.25;2.60;;;25.40;49.10;;;;;;6229304;27;80401;-65
2023/10/18 11:34:40;;;;;;;4.88;2.60;;;25.40;49.40;;;;;;6227745;28;80534;-65
2023/10/18 11:37:44;;;;;;;4.97;2.35;;;25.40;49.40;;;;;;6213593;27;80388;-65
2023/10/18 11:40:48;;;;;;;4.22;2.35;;;25.40;49.80;;;;;;6222077;28;84883;-67
2023/10/18 11:43:48;;;;;;;3.92;2.50;;;25.40;50.20;;;;;;6228542;28;83322;-66
2023/10/18 11:46:56;;;;;;;4.60;2.25;;;25.40;50.00;;;;;;6215860;28;80929;-67
2023/10/18 11:49:57;;;;;;;3.97;2.10;;;25.40;49.50;;;;;;6224475;28;81849;-69
2023/10/18 11:52:57;;;;;;;3.33;2.10;;;25.40;49.10;;;;;;6229897;28;80850;-68
2023/10/18 11:55:58;;;;;;;4.10;2.30;;;25.40;49.80;;;;;;6220956;28;80116;-66
2023/10/18 11:59:00;;;;;;;7.18;2.58;;;25.40;49.60;;;;;;6230683;28;80380;-66
2023/10/18 12:02:06;;;;;;;4.18;1.90;;;25.40;49.70;;;;;;6205257;27;80786;-67
2023/10/18 12:05:07;;;;;;;2.28;1.75;;;25.40;49.50;;;;;;6225503;28;84245;-64
2023/10/18 12:08:12;;;;;;;6.00;2.10;;;25.40;49.80;;;;;;6227362;28;80275;-66
2023/10/18 12:11:13;;;;;;;2.75;1.88;;;25.40;49.30;;;;;;6235615;27;80707;-66
2023/10/18 12:14:14;;;;;;;4.68;2.15;;;25.40;49.70;;;;;;6225277;28;80485;-66
2023/10/18 12:17:15;;;;;;;3.88;2.25;;;25.40;49.10;;;;;;6233647;27;80889;-66
2023/10/18 12:20:15;;;;;;;6.60;2.67;;;25.40;49.30;;;;;;6230172;27;82750;-66
2023/10/18 12:23:19;;;;;;;4.13;2.28;;;25.40;49.10;;;;;;6221010;28;80792;-67
2023/10/18 12:26:21;;;;;;;3.42;2.22;;;25.40;48.80;;;;;;6216940;28;82887;-66
2023/10/18 12:29:26;;;;;;;4.50;2.50;;;25.40;49.10;;;;;;6227358;27;80416;-70
2023/10/18 12:32:27;;;;;;;4.38;2.40;;;25.40;49.20;;;;;;6225365;27;82089;-70
2023/10/18 12:35:28;;;;;;;5.25;2.15;;;25.40;49.70;;;;;;6229739;27;80602;-68
2023/10/18 12:38:32;;;;;;;4.07;2.03;;;25.40;50.00;;;;;;6230526;27;80772;-71
2023/10/18 12:41:35;;;;;;;4.45;2.20;;;25.40;50.80;;;;;;6229842;28;80501;-68
2023/10/18 12:44:39;;;;;;;3.22;2.00;;;25.40;51.10;;;;;;6223925;28;80590;-70
2023/10/18 12:47:42;;;;;;;3.50;2.00;;;25.40;52.70;;;;;;6213701;28;80838;-68
2023/10/18 12:50:45;;;;;;;4.28;2.13;;;25.40;52.90;;;;;;6220508;28;80341;-68
2023/10/18 12:53:55;;;;;;;5.25;2.28;;;25.40;53.20;;;;;;6228714;27;82697;-67
2023/10/18 13:00:26;;;;;;;3.28;1.77;;;25.40;53.60;;;;;;6216226;28;80847;-63
2023/10/18 13:03:33;;;;;;;2.72;1.90;;;25.40;54.20;;;;;;6213325;28;80449;-62
2023/10/18 13:06:43;;;;;;;8.20;2.28;;;25.40;54.20;;;;;;6223480;28;84960;-61
2023/10/18 13:09:45;;;;;;;3.67;2.20;;;25.40;54.80;;;;;;6223365;28;85413;-63
2023/10/18 13:12:53;;;;;;;4.05;2.58;;;25.40;54.90;;;;;;6226753;27;80978;-63
2023/10/18 13:15:57;;;;;;;5.13;1.98;;;25.40;55.40;;;;;;6215518;27;81495;-62
2023/10/18 13:18:57;;;;;;;4.35;2.53;;;25.50;55.20;;;;;;6213254;27;82550;-62
2023/10/18 13:21:58;;;;;;;5.47;2.88;;;25.50;55.80;;;;;;6219611;27;80301;-63
2023/10/18 13:24:59;;;;;;;5.32;2.50;;;25.50;55.50;;;;;;6227670;28;80349;-63
2023/10/18 13:28:05;;;;;;;4.45;2.28;;;25.50;55.50;;;;;;6217430;27;80368;-61
2023/10/18 13:31:06;;;;;;;6.22;2.55;;;25.50;56.00;;;;;;6217471;27;84973;-62
2023/10/18 13:34:06;;;;;;;5.47;2.58;;;25.50;57.20;;;;;;6219967;27;80761;-62
2023/10/18 13:37:12;;;;;;;6.07;2.92;;;25.50;55.50;;;;;;6213804;27;80353;-63
2023/10/18 13:40:18;;;;;;;5.82;2.92;;;25.40;54.60;;;;;;6218423;28;80708;-61
2023/10/18 13:43:19;;;;;;;7.47;3.20;;;25.40;54.20;;;;;;6220337;28;80094;-61
2023/10/18 13:46:19;;;;;;;5.20;2.60;;;25.40;53.70;;;;;;6217946;28;80508;-60
2023/10/18 13:49:20;;;;;;;6.68;3.20;;;25.40;53.00;;;;;;6229963;27;80275;-63
2023/10/18 13:52:21;;;;;;;6.25;3.08;;;25.40;52.90;;;;;;6225538;27;80770;-65
2023/10/18 13:55:21;;;;;;;5.85;2.75;;;25.30;52.00;;;;;;6230016;27;82908;-69
2023/10/18 13:58:22;;;;;;;8.43;3.22;;;25.30;52.00;;;;;;6219719;27;81412;-65
2023/10/18 14:01:25;;;;;;;5.32;3.00;;;25.30;52.10;;;;;;6218571;27;80565;-65
2023/10/18 14:04:28;;;;;;;7.45;2.70;;;25.30;51.90;;;;;;6220440;27;80899;-69
2023/10/18 14:07:30;;;;;;;7.82;4.10;;;25.30;52.60;;;;;;6223815;27;80611;-68
2023/10/18 14:10:35;;;;;;;6.85;2.70;;;25.30;52.80;;;;;;6221298;28;80277;-67
2023/10/18 14:13:36;;;;;;;7.33;3.10;;;25.30;52.70;;;;;;6222624;27;80288;-69
2023/10/18 14:16:37;;;;;;;5.47;2.42;;;25.30;51.30;;;;;;6225343;27;80380;-67
2023/10/18 14:19:38;;;;;;;7.88;2.70;;;25.30;51.80;;;;;;6221911;27;81734;-68
2023/10/18 14:22:39;;;;;;;5.68;2.60;;;25.30;51.70;;;;;;6222964;27;84915;-66
2023/10/18 14:25:42;;;;;;;6.78;2.83;;;25.30;52.70;;;;;;6223558;28;81154;-67
2023/10/18 14:28:43;;;;;;;9.45;3.22;;;25.40;51.80;;;;;;6222839;27;80311;-65
2023/10/18 14:31:43;;;;;;;10.05;3.35;;;25.40;52.40;;;;;;6224393;28;80914;-63
2023/10/18 14:34:44;;;;;;;11.82;3.20;;;25.40;52.70;;;;;;6190245;27;82820;-74
2023/10/18 14:37:44;;;;;;;9.23;3.08;;;25.50;53.00;;;;;;6189481;28;82523;-65
2023/10/18 14:40:45;;;;;;;6.65;3.40;;;25.50;52.60;;;;;;6177907;28;81452;-66
2023/10/18 14:43:47;;;;;;;6.75;3.65;;;25.50;52.30;;;;;;6187541;27;83171;-65
2023/10/18 14:46:48;;;;;;;13.07;3.80;;;25.50;52.70;;;;;;6181619;28;81359;-60
2023/10/18 14:49:48;;;;;;;9.38;3.33;;;25.50;53.30;;;;;;6188366;28;81728;-63
2023/10/18 14:52:49;;;;;;;11.23;3.95;;;25.40;53.40;;;;;;6184984;28;81671;-62
2023/10/18 14:55:50;;;;;;;11.70;3.10;;;25.50;53.60;;;;;;6185902;28;81238;-62
2023/10/18 14:58:50;;;;;;;7.75;3.97;;;25.40;53.90;;;;;;6191623;28;81479;-64
2023/10/18 15:01:54;;;;;;;10.98;4.32;;;25.40;54.30;;;;;;6180390;28;81250;-63
2023/10/18 15:04:55;;;;;;;9.57;4.03;;;25.40;54.00;;;;;;6181738;28;82206;-61
2023/10/18 15:07:57;;;;;;;12.88;3.65;;;25.40;53.30;;;;;;6186500;28;82025;-59
2023/10/18 15:10:58;;;;;;;7.82;4.15;;;25.30;54.10;;;;;;6205300;28;80805;-60
2023/10/18 15:13:58;;;;;;;9.80;4.05;;;25.30;54.10;;;;;;6205146;28;80375;-59
2023/10/18 15:16:59;;;;;;;7.40;4.05;;;25.30;54.20;;;;;;6217763;28;84410;-61
2023/10/18 15:20:00;;;;;;;13.65;4.53;;;25.20;52.60;;;;;;6222551;27;81070;-63
2023/10/18 15:23:01;;;;;;;7.20;3.65;;;25.10;51.70;;;;;;6221884;28;80375;-71
2023/10/18 15:26:03;;;;;;;7.10;3.65;;;25.10;52.70;;;;;;6225526;28;80274;-71
2023/10/18 15:29:03;;;;;;;10.82;3.30;;;25.10;52.50;;;;;;6216926;28;80996;-71
2023/10/18 15:32:03;;;;;;;9.05;3.47;;;25.00;52.60;;;;;;6223034;28;80788;-68
2023/10/18 15:35:05;;;;;;;12.38;3.42;;;25.00;52.30;;;;;;6220778;28;80725;-70
2023/10/18 15:38:05;;;;;;;9.43;3.58;;;24.90;51.90;;;;;;6222651;27;80594;-70
2023/10/18 15:41:06;;;;;;;8.18;3.90;;;24.90;51.80;;;;;;6217571;28;80639;-61
2023/10/18 15:44:07;;;;;;;8.55;3.80;;;24.80;51.80;;;;;;6228020;28;80835;-63
2023/10/18 15:47:08;;;;;;;7.30;4.20;;;24.80;51.60;;;;;;6219471;28;80725;-60
2023/10/18 15:50:08;;;;;;;9.23;4.13;;;24.70;50.90;;;;;;6219244;27;80391;-60
2023/10/18 15:53:09;;;;;;;10.20;4.47;;;24.70;50.50;;;;;;6224226;27;79927;-60
2023/10/18 15:56:09;;;;;;;11.45;4.70;;;24.70;50.20;;;;;;6223656;28;85119;-60
2023/10/18 15:59:10;;;;;;;9.05;4.97;;;24.60;49.80;;;;;;6222850;27;82280;-60
2023/10/18 16:02:14;;;;;;;8.65;5.07;;;24.60;49.50;;;;;;6223532;27;80476;-60
2023/10/18 16:05:14;;;;;;;11.30;5.28;;;24.60;49.30;;;;;;6221942;27;80726;-61
2023/10/18 16:08:15;;;;;;;13.60;5.18;;;24.60;49.10;;;;;;6221982;27;81356;-61
2023/10/18 16:11:15;;;;;;;11.73;5.25;;;24.50;48.60;;;;;;6221231;28;82146;-61